sensor_id;sensor_type;location;lat;lon;timestamp;P1;durP1;ratioP1;P2;durP2;ratioP2
52956;SDS011;38819;42.692;23.342;2024-03-22T00:00:09;73.07;;;32.38;;
52956;SDS011;38819;42.692;23.342;2024-03-22T00:02:36;65.95;;;31.42;;
52956;SDS011;38819;42.692;23.342;2024-03-22T00:05:03;76.32;;;34.03;;
52956;SDS011;38819;42.692;23.342;2024-03-22T00:07:28;66.72;;;33.65;;
52956;SDS011;38819;42.692;23.342;2024-03-22T00:09:54;63.85;;;32.55;;
52956;SDS011;38819;42.692;23.342;2024-03-22T00:12:19;70.47;;;33.03;;
52956;SDS011;38819;42.692;23.342;2024-03-22T00:14:45;66.82;;;33.67;;
52956;SDS011;38819;42.692;23.342;2024-03-22T00:17:10;60.88;;;31.30;;
52956;SDS011;38819;42.692;23.342;2024-03-22T00:19:35;68.82;;;34.42;;
52956;SDS011;38819;42.692;23.342;2024-03-22T00:22:01;65.68;;;32.50;;
52956;SDS011;38819;42.692;23.342;2024-03-22T00:24:26;63.50;;;32.28;;
52956;SDS011;38819;42.692;23.342;2024-03-22T00:26:51;64.20;;;30.25;;
52956;SDS011;38819;42.692;23.342;2024-03-22T00:29:17;61.28;;;28.85;;
52956;SDS011;38819;42.692;23.342;2024-03-22T00:31:42;59.97;;;28.58;;
52956;SDS011;38819;42.692;23.342;2024-03-22T00:34:07;59.50;;;27.30;;
52956;SDS011;38819;42.692;23.342;2024-03-22T00:36:33;52.90;;;27.35;;
52956;SDS011;38819;42.692;23.342;2024-03-22T00:38:58;65.72;;;32.58;;
52956;SDS011;38819;42.692;23.342;2024-03-22T00:41:24;58.75;;;29.88;;
52956;SDS011;38819;42.692;23.342;2024-03-22T00:43:49;59.03;;;29.30;;
52956;SDS011;38819;42.692;23.342;2024-03-22T00:46:14;59.15;;;29.75;;
52956;SDS011;38819;42.692;23.342;2024-03-22T00:48:40;62.85;;;29.83;;
52956;SDS011;38819;42.692;23.342;2024-03-22T00:51:05;55.80;;;26.98;;
52956;SDS011;38819;42.692;23.342;2024-03-22T00:53:30;56.08;;;24.65;;
52956;SDS011;38819;42.692;23.342;2024-03-22T00:55:56;54.50;;;24.63;;
52956;SDS011;38819;42.692;23.342;2024-03-22T00:58:24;55.63;;;21.65;;
52956;SDS011;38819;42.692;23.342;2024-03-22T01:00:50;35.90;;;13.23;;
52956;SDS011;38819;42.692;23.342;2024-03-22T01:03:16;32.70;;;16.42;;
52956;SDS011;38819;42.692;23.342;2024-03-22T01:05:41;35.13;;;16.17;;
52956;SDS011;38819;42.692;23.342;2024-03-22T01:08:07;35.92;;;15.43;;
52956;SDS011;38819;42.692;23.342;2024-03-22T01:10:33;33.15;;;15.95;;
52956;SDS011;38819;42.692;23.342;2024-03-22T01:12:59;31.63;;;15.07;;
52956;SDS011;38819;42.692;23.342;2024-03-22T01:15:25;28.70;;;15.00;;
52956;SDS011;38819;42.692;23.342;2024-03-22T01:17:50;26.85;;;15.05;;
52956;SDS011;38819;42.692;23.342;2024-03-22T01:20:17;31.48;;;14.77;;
52956;SDS011;38819;42.692;23.342;2024-03-22T01:22:42;27.83;;;14.68;;
52956;SDS011;38819;42.692;23.342;2024-03-22T01:25:08;33.58;;;15.55;;
52956;SDS011;38819;42.692;23.342;2024-03-22T01:27:34;34.63;;;15.88;;
52956;SDS011;38819;42.692;23.342;2024-03-22T01:30:00;36.17;;;17.73;;
52956;SDS011;38819;42.692;23.342;2024-03-22T01:32:25;37.38;;;15.93;;
52956;SDS011;38819;42.692;23.342;2024-03-22T01:34:50;30.38;;;15.48;;
52956;SDS011;38819;42.692;23.342;2024-03-22T01:37:16;33.63;;;14.45;;
52956;SDS011;38819;42.692;23.342;2024-03-22T01:39:41;30.30;;;14.40;;
52956;SDS011;38819;42.692;23.342;2024-03-22T01:42:06;31.88;;;15.20;;
52956;SDS011;38819;42.692;23.342;2024-03-22T01:44:32;32.03;;;14.43;;
52956;SDS011;38819;42.692;23.342;2024-03-22T01:46:57;34.95;;;17.15;;
52956;SDS011;38819;42.692;23.342;2024-03-22T01:49:25;29.30;;;15.65;;
52956;SDS011;38819;42.692;23.342;2024-03-22T01:51:51;31.00;;;14.95;;
52956;SDS011;38819;42.692;23.342;2024-03-22T01:54:17;40.25;;;18.48;;
52956;SDS011;38819;42.692;23.342;2024-03-22T01:56:44;41.80;;;17.73;;
52956;SDS011;38819;42.692;23.342;2024-03-22T01:59:09;31.73;;;15.88;;
52956;SDS011;38819;42.692;23.342;2024-03-22T02:01:35;41.95;;;17.70;;
52956;SDS011;38819;42.692;23.342;2024-03-22T02:04:01;37.05;;;18.05;;
52956;SDS011;38819;42.692;23.342;2024-03-22T02:06:26;44.10;;;20.58;;
52956;SDS011;38819;42.692;23.342;2024-03-22T02:08:52;39.22;;;17.45;;
52956;SDS011;38819;42.692;23.342;2024-03-22T02:11:17;43.28;;;18.17;;
52956;SDS011;38819;42.692;23.342;2024-03-22T02:13:43;37.40;;;17.40;;
52956;SDS011;38819;42.692;23.342;2024-03-22T02:16:09;41.55;;;19.58;;
52956;SDS011;38819;42.692;23.342;2024-03-22T02:21:19;39.42;;;19.58;;
52956;SDS011;38819;42.692;23.342;2024-03-22T02:23:44;42.97;;;20.40;;
52956;SDS011;38819;42.692;23.342;2024-03-22T02:26:09;42.13;;;19.23;;
52956;SDS011;38819;42.692;23.342;2024-03-22T02:28:35;38.17;;;19.10;;
52956;SDS011;38819;42.692;23.342;2024-03-22T02:31:01;50.40;;;20.48;;
52956;SDS011;38819;42.692;23.342;2024-03-22T02:33:27;26.92;;;14.85;;
52956;SDS011;38819;42.692;23.342;2024-03-22T02:35:53;45.25;;;19.77;;
52956;SDS011;38819;42.692;23.342;2024-03-22T02:38:18;41.35;;;19.63;;
52956;SDS011;38819;42.692;23.342;2024-03-22T02:40:44;39.05;;;19.98;;
52956;SDS011;38819;42.692;23.342;2024-03-22T02:43:11;30.83;;;13.82;;
52956;SDS011;38819;42.692;23.342;2024-03-22T02:45:36;41.00;;;19.58;;
52956;SDS011;38819;42.692;23.342;2024-03-22T02:48:02;41.30;;;20.27;;
52956;SDS011;38819;42.692;23.342;2024-03-22T02:50:32;47.83;;;20.05;;
52956;SDS011;38819;42.692;23.342;2024-03-22T02:52:58;37.33;;;19.50;;
52956;SDS011;38819;42.692;23.342;2024-03-22T02:55:23;46.47;;;20.77;;
52956;SDS011;38819;42.692;23.342;2024-03-22T02:57:49;41.75;;;20.15;;
52956;SDS011;38819;42.692;23.342;2024-03-22T03:00:15;49.25;;;22.83;;
52956;SDS011;38819;42.692;23.342;2024-03-22T03:02:40;54.97;;;25.92;;
52956;SDS011;38819;42.692;23.342;2024-03-22T03:05:06;62.00;;;28.65;;
52956;SDS011;38819;42.692;23.342;2024-03-22T03:07:31;43.63;;;20.33;;
52956;SDS011;38819;42.692;23.342;2024-03-22T03:09:57;37.17;;;17.60;;
52956;SDS011;38819;42.692;23.342;2024-03-22T03:12:22;43.05;;;19.02;;
52956;SDS011;38819;42.692;23.342;2024-03-22T03:14:47;44.50;;;21.85;;
52956;SDS011;38819;42.692;23.342;2024-03-22T03:17:13;38.35;;;18.20;;
52956;SDS011;38819;42.692;23.342;2024-03-22T03:19:38;41.63;;;18.13;;
52956;SDS011;38819;42.692;23.342;2024-03-22T03:22:03;38.30;;;16.92;;
52956;SDS011;38819;42.692;23.342;2024-03-22T03:24:29;29.05;;;15.25;;
52956;SDS011;38819;42.692;23.342;2024-03-22T03:26:54;32.88;;;13.27;;
52956;SDS011;38819;42.692;23.342;2024-03-22T03:29:20;26.20;;;13.20;;
52956;SDS011;38819;42.692;23.342;2024-03-22T03:31:45;22.40;;;13.05;;
52956;SDS011;38819;42.692;23.342;2024-03-22T03:34:11;24.23;;;13.07;;
52956;SDS011;38819;42.692;23.342;2024-03-22T03:36:36;25.95;;;12.52;;
52956;SDS011;38819;42.692;23.342;2024-03-22T03:39:01;29.08;;;12.48;;
52956;SDS011;38819;42.692;23.342;2024-03-22T03:41:27;25.40;;;12.60;;
52956;SDS011;38819;42.692;23.342;2024-03-22T03:43:52;25.48;;;13.82;;
52956;SDS011;38819;42.692;23.342;2024-03-22T03:46:18;34.15;;;12.98;;
52956;SDS011;38819;42.692;23.342;2024-03-22T03:48:43;26.88;;;13.43;;
52956;SDS011;38819;42.692;23.342;2024-03-22T03:51:08;22.70;;;12.82;;
52956;SDS011;38819;42.692;23.342;2024-03-22T03:53:34;24.77;;;12.65;;
52956;SDS011;38819;42.692;23.342;2024-03-22T03:55:59;31.85;;;13.02;;
52956;SDS011;38819;42.692;23.342;2024-03-22T03:58:24;24.63;;;13.07;;
52956;SDS011;38819;42.692;23.342;2024-03-22T04:00:50;23.27;;;12.90;;
52956;SDS011;38819;42.692;23.342;2024-03-22T04:03:15;30.45;;;12.38;;
52956;SDS011;38819;42.692;23.342;2024-03-22T04:05:40;32.65;;;13.10;;
52956;SDS011;38819;42.692;23.342;2024-03-22T04:08:06;28.90;;;13.02;;
52956;SDS011;38819;42.692;23.342;2024-03-22T04:10:31;38.60;;;14.82;;
52956;SDS011;38819;42.692;23.342;2024-03-22T04:12:57;33.47;;;14.82;;
52956;SDS011;38819;42.692;23.342;2024-03-22T04:15:23;30.17;;;13.55;;
52956;SDS011;38819;42.692;23.342;2024-03-22T04:17:48;31.17;;;12.55;;
52956;SDS011;38819;42.692;23.342;2024-03-22T04:20:14;23.25;;;12.68;;
52956;SDS011;38819;42.692;23.342;2024-03-22T04:22:39;33.65;;;13.95;;
52956;SDS011;38819;42.692;23.342;2024-03-22T04:25:04;41.30;;;14.10;;
52956;SDS011;38819;42.692;23.342;2024-03-22T04:27:30;27.75;;;13.15;;
52956;SDS011;38819;42.692;23.342;2024-03-22T04:29:56;31.95;;;12.82;;
52956;SDS011;38819;42.692;23.342;2024-03-22T04:32:21;26.20;;;12.50;;
52956;SDS011;38819;42.692;23.342;2024-03-22T04:34:46;30.50;;;13.27;;
52956;SDS011;38819;42.692;23.342;2024-03-22T04:37:12;23.52;;;12.60;;
52956;SDS011;38819;42.692;23.342;2024-03-22T04:39:39;19.95;;;12.75;;
52956;SDS011;38819;42.692;23.342;2024-03-22T04:42:05;27.02;;;11.35;;
52956;SDS011;38819;42.692;23.342;2024-03-22T04:44:31;24.25;;;11.13;;
52956;SDS011;38819;42.692;23.342;2024-03-22T04:46:56;30.65;;;12.73;;
52956;SDS011;38819;42.692;23.342;2024-03-22T04:49:21;33.15;;;13.68;;
52956;SDS011;38819;42.692;23.342;2024-03-22T04:51:47;31.55;;;12.43;;
52956;SDS011;38819;42.692;23.342;2024-03-22T04:54:12;25.48;;;12.25;;
52956;SDS011;38819;42.692;23.342;2024-03-22T04:56:39;41.05;;;12.68;;
52956;SDS011;38819;42.692;23.342;2024-03-22T05:01:30;33.60;;;12.48;;
52956;SDS011;38819;42.692;23.342;2024-03-22T05:03:55;27.27;;;13.45;;
52956;SDS011;38819;42.692;23.342;2024-03-22T05:06:21;28.52;;;14.98;;
52956;SDS011;38819;42.692;23.342;2024-03-22T05:08:46;36.53;;;14.45;;
52956;SDS011;38819;42.692;23.342;2024-03-22T05:11:12;26.83;;;13.52;;
52956;SDS011;38819;42.692;23.342;2024-03-22T05:13:37;34.53;;;14.13;;
52956;SDS011;38819;42.692;23.342;2024-03-22T05:16:04;48.88;;;16.45;;
52956;SDS011;38819;42.692;23.342;2024-03-22T05:18:30;31.92;;;15.27;;
52956;SDS011;38819;42.692;23.342;2024-03-22T05:20:55;39.88;;;14.55;;
52956;SDS011;38819;42.692;23.342;2024-03-22T05:23:21;36.78;;;14.82;;
52956;SDS011;38819;42.692;23.342;2024-03-22T05:25:46;32.88;;;14.27;;
52956;SDS011;38819;42.692;23.342;2024-03-22T05:28:11;38.33;;;15.15;;
52956;SDS011;38819;42.692;23.342;2024-03-22T05:30:37;29.13;;;14.57;;
52956;SDS011;38819;42.692;23.342;2024-03-22T05:33:02;43.78;;;16.38;;
52956;SDS011;38819;42.692;23.342;2024-03-22T05:35:28;43.70;;;14.32;;
52956;SDS011;38819;42.692;23.342;2024-03-22T05:37:53;39.05;;;14.10;;
52956;SDS011;38819;42.692;23.342;2024-03-22T05:40:18;39.28;;;13.65;;
52956;SDS011;38819;42.692;23.342;2024-03-22T05:42:44;36.83;;;13.77;;
52956;SDS011;38819;42.692;23.342;2024-03-22T05:45:09;31.95;;;13.00;;
52956;SDS011;38819;42.692;23.342;2024-03-22T05:47:34;28.90;;;12.60;;
52956;SDS011;38819;42.692;23.342;2024-03-22T05:52:27;37.80;;;12.25;;
52956;SDS011;38819;42.692;23.342;2024-03-22T05:54:53;29.70;;;12.35;;
52956;SDS011;38819;42.692;23.342;2024-03-22T05:57:18;30.50;;;12.40;;
52956;SDS011;38819;42.692;23.342;2024-03-22T05:59:43;36.72;;;13.40;;
52956;SDS011;38819;42.692;23.342;2024-03-22T06:02:09;27.85;;;13.45;;
52956;SDS011;38819;42.692;23.342;2024-03-22T06:04:34;29.77;;;15.18;;
52956;SDS011;38819;42.692;23.342;2024-03-22T06:07:00;30.25;;;14.32;;
52956;SDS011;38819;42.692;23.342;2024-03-22T06:09:28;40.13;;;15.60;;
52956;SDS011;38819;42.692;23.342;2024-03-22T06:12:04;48.40;;;15.27;;
52956;SDS011;38819;42.692;23.342;2024-03-22T06:14:30;37.47;;;14.73;;
52956;SDS011;38819;42.692;23.342;2024-03-22T06:16:56;46.55;;;17.08;;
52956;SDS011;38819;42.692;23.342;2024-03-22T06:19:22;54.30;;;16.40;;
52956;SDS011;38819;42.692;23.342;2024-03-22T06:21:48;40.08;;;16.80;;
52956;SDS011;38819;42.692;23.342;2024-03-22T06:24:13;41.25;;;15.13;;
52956;SDS011;38819;42.692;23.342;2024-03-22T06:26:39;32.75;;;15.43;;
52956;SDS011;38819;42.692;23.342;2024-03-22T06:29:04;44.45;;;15.25;;
52956;SDS011;38819;42.692;23.342;2024-03-22T06:31:30;43.05;;;15.40;;
52956;SDS011;38819;42.692;23.342;2024-03-22T06:33:56;40.47;;;16.88;;
52956;SDS011;38819;42.692;23.342;2024-03-22T06:36:27;49.60;;;16.00;;
52956;SDS011;38819;42.692;23.342;2024-03-22T06:38:53;42.40;;;15.55;;
52956;SDS011;38819;42.692;23.342;2024-03-22T06:41:18;41.35;;;14.75;;
52956;SDS011;38819;42.692;23.342;2024-03-22T06:43:43;36.28;;;15.48;;
52956;SDS011;38819;42.692;23.342;2024-03-22T06:46:09;22.58;;;12.90;;
52956;SDS011;38819;42.692;23.342;2024-03-22T06:48:34;45.03;;;14.57;;
52956;SDS011;38819;42.692;23.342;2024-03-22T06:50:59;40.45;;;16.17;;
52956;SDS011;38819;42.692;23.342;2024-03-22T06:53:25;37.83;;;14.50;;
52956;SDS011;38819;42.692;23.342;2024-03-22T06:55:52;36.40;;;16.17;;
52956;SDS011;38819;42.692;23.342;2024-03-22T06:58:17;25.38;;;14.50;;
52956;SDS011;38819;42.692;23.342;2024-03-22T07:00:42;39.38;;;15.40;;
52956;SDS011;38819;42.692;23.342;2024-03-22T07:03:08;37.25;;;15.13;;
52956;SDS011;38819;42.692;23.342;2024-03-22T07:05:33;39.92;;;14.23;;
52956;SDS011;38819;42.692;23.342;2024-03-22T07:07:58;39.17;;;14.45;;
52956;SDS011;38819;42.692;23.342;2024-03-22T07:10:24;29.45;;;13.23;;
52956;SDS011;38819;42.692;23.342;2024-03-22T07:12:53;38.97;;;13.88;;
52956;SDS011;38819;42.692;23.342;2024-03-22T07:15:20;37.95;;;14.73;;
52956;SDS011;38819;42.692;23.342;2024-03-22T07:17:47;51.65;;;13.93;;
52956;SDS011;38819;42.692;23.342;2024-03-22T07:20:12;35.08;;;14.13;;
52956;SDS011;38819;42.692;23.342;2024-03-22T07:22:37;32.03;;;12.80;;
52956;SDS011;38819;42.692;23.342;2024-03-22T07:25:03;27.58;;;13.32;;
52956;SDS011;38819;42.692;23.342;2024-03-22T07:27:29;31.55;;;12.48;;
52956;SDS011;38819;42.692;23.342;2024-03-22T07:29:54;24.20;;;12.32;;
52956;SDS011;38819;42.692;23.342;2024-03-22T07:32:20;28.38;;;13.23;;
52956;SDS011;38819;42.692;23.342;2024-03-22T07:34:46;24.25;;;10.68;;
52956;SDS011;38819;42.692;23.342;2024-03-22T07:37:11;19.65;;;10.20;;
52956;SDS011;38819;42.692;23.342;2024-03-22T07:39:36;18.23;;;10.25;;
52956;SDS011;38819;42.692;23.342;2024-03-22T07:42:02;25.75;;;10.75;;
52956;SDS011;38819;42.692;23.342;2024-03-22T07:44:28;24.52;;;10.52;;
52956;SDS011;38819;42.692;23.342;2024-03-22T07:46:53;16.70;;;9.35;;
52956;SDS011;38819;42.692;23.342;2024-03-22T07:49:19;20.80;;;9.10;;
52956;SDS011;38819;42.692;23.342;2024-03-22T07:51:45;16.02;;;8.07;;
52956;SDS011;38819;42.692;23.342;2024-03-22T07:54:11;20.92;;;7.70;;
52956;SDS011;38819;42.692;23.342;2024-03-22T07:56:36;14.07;;;6.85;;
52956;SDS011;38819;42.692;23.342;2024-03-22T07:59:01;13.13;;;7.30;;
52956;SDS011;38819;42.692;23.342;2024-03-22T08:01:27;9.88;;;6.63;;
52956;SDS011;38819;42.692;23.342;2024-03-22T08:03:52;6.15;;;4.45;;
52956;SDS011;38819;42.692;23.342;2024-03-22T08:06:18;7.18;;;4.45;;
52956;SDS011;38819;42.692;23.342;2024-03-22T08:08:44;8.05;;;4.80;;
52956;SDS011;38819;42.692;23.342;2024-03-22T08:11:09;8.43;;;4.85;;
52956;SDS011;38819;42.692;23.342;2024-03-22T08:13:35;5.85;;;4.40;;
52956;SDS011;38819;42.692;23.342;2024-03-22T08:16:00;7.65;;;5.20;;
52956;SDS011;38819;42.692;23.342;2024-03-22T08:18:25;6.63;;;5.00;;
52956;SDS011;38819;42.692;23.342;2024-03-22T08:20:51;11.40;;;4.20;;
52956;SDS011;38819;42.692;23.342;2024-03-22T08:23:16;7.10;;;3.88;;
52956;SDS011;38819;42.692;23.342;2024-03-22T08:25:45;7.05;;;3.85;;
52956;SDS011;38819;42.692;23.342;2024-03-22T08:28:10;4.50;;;3.85;;
52956;SDS011;38819;42.692;23.342;2024-03-22T08:30:37;8.30;;;3.42;;
52956;SDS011;38819;42.692;23.342;2024-03-22T08:33:02;9.02;;;4.78;;
52956;SDS011;38819;42.692;23.342;2024-03-22T08:35:29;5.85;;;4.00;;
52956;SDS011;38819;42.692;23.342;2024-03-22T08:37:54;6.82;;;3.72;;
52956;SDS011;38819;42.692;23.342;2024-03-22T08:40:20;5.22;;;4.25;;
52956;SDS011;38819;42.692;23.342;2024-03-22T08:42:45;6.82;;;4.28;;
52956;SDS011;38819;42.692;23.342;2024-03-22T08:45:10;6.78;;;4.90;;
52956;SDS011;38819;42.692;23.342;2024-03-22T08:47:36;5.65;;;3.80;;
52956;SDS011;38819;42.692;23.342;2024-03-22T08:50:01;8.40;;;4.15;;
52956;SDS011;38819;42.692;23.342;2024-03-22T08:52:26;5.05;;;3.78;;
52956;SDS011;38819;42.692;23.342;2024-03-22T08:54:52;8.07;;;4.18;;
52956;SDS011;38819;42.692;23.342;2024-03-22T08:57:18;6.55;;;4.03;;
52956;SDS011;38819;42.692;23.342;2024-03-22T08:59:44;5.60;;;4.07;;
52956;SDS011;38819;42.692;23.342;2024-03-22T09:02:10;4.93;;;3.80;;
52956;SDS011;38819;42.692;23.342;2024-03-22T09:04:36;6.25;;;3.70;;
52956;SDS011;38819;42.692;23.342;2024-03-22T09:07:01;6.20;;;4.57;;
52956;SDS011;38819;42.692;23.342;2024-03-22T09:09:27;5.93;;;4.03;;
52956;SDS011;38819;42.692;23.342;2024-03-22T09:11:52;9.52;;;4.70;;
52956;SDS011;38819;42.692;23.342;2024-03-22T09:14:18;4.97;;;3.88;;
52956;SDS011;38819;42.692;23.342;2024-03-22T09:16:43;8.85;;;4.13;;
52956;SDS011;38819;42.692;23.342;2024-03-22T09:19:08;5.65;;;4.25;;
52956;SDS011;38819;42.692;23.342;2024-03-22T09:21:36;4.63;;;3.90;;
52956;SDS011;38819;42.692;23.342;2024-03-22T09:24:01;7.15;;;3.63;;
52956;SDS011;38819;42.692;23.342;2024-03-22T09:26:28;6.97;;;4.03;;
52956;SDS011;38819;42.692;23.342;2024-03-22T09:28:53;4.97;;;3.50;;
52956;SDS011;38819;42.692;23.342;2024-03-22T09:31:19;6.25;;;3.70;;
52956;SDS011;38819;42.692;23.342;2024-03-22T09:33:45;4.43;;;3.70;;
52956;SDS011;38819;42.692;23.342;2024-03-22T09:36:10;12.27;;;3.90;;
52956;SDS011;38819;42.692;23.342;2024-03-22T09:38:35;5.90;;;4.18;;
52956;SDS011;38819;42.692;23.342;2024-03-22T09:41:01;5.05;;;3.75;;
52956;SDS011;38819;42.692;23.342;2024-03-22T09:43:30;5.28;;;3.80;;
52956;SDS011;38819;42.692;23.342;2024-03-22T09:45:57;5.38;;;3.80;;
52956;SDS011;38819;42.692;23.342;2024-03-22T09:48:23;4.75;;;3.80;;
52956;SDS011;38819;42.692;23.342;2024-03-22T09:50:51;4.97;;;3.22;;
52956;SDS011;38819;42.692;23.342;2024-03-22T09:53:20;5.10;;;3.70;;
52956;SDS011;38819;42.692;23.342;2024-03-22T09:55:50;7.28;;;3.80;;
52956;SDS011;38819;42.692;23.342;2024-03-22T09:58:17;6.88;;;4.05;;
52956;SDS011;38819;42.692;23.342;2024-03-22T10:00:43;7.40;;;4.50;;
52956;SDS011;38819;42.692;23.342;2024-03-22T10:03:09;4.63;;;4.13;;
52956;SDS011;38819;42.692;23.342;2024-03-22T10:05:36;3.95;;;3.45;;
52956;SDS011;38819;42.692;23.342;2024-03-22T10:08:02;5.88;;;4.00;;
52956;SDS011;38819;42.692;23.342;2024-03-22T10:10:30;4.50;;;3.42;;
52956;SDS011;38819;42.692;23.342;2024-03-22T10:12:55;7.18;;;4.38;;
52956;SDS011;38819;42.692;23.342;2024-03-22T10:15:23;7.18;;;4.18;;
52956;SDS011;38819;42.692;23.342;2024-03-22T10:17:49;6.38;;;3.83;;
52956;SDS011;38819;42.692;23.342;2024-03-22T10:20:14;5.78;;;3.50;;
52956;SDS011;38819;42.692;23.342;2024-03-22T10:22:43;6.07;;;3.30;;
52956;SDS011;38819;42.692;23.342;2024-03-22T10:25:13;4.22;;;3.50;;
52956;SDS011;38819;42.692;23.342;2024-03-22T10:27:39;4.10;;;3.17;;
52956;SDS011;38819;42.692;23.342;2024-03-22T10:30:08;6.18;;;3.33;;
52956;SDS011;38819;42.692;23.342;2024-03-22T10:32:35;4.30;;;3.35;;
52956;SDS011;38819;42.692;23.342;2024-03-22T10:35:02;8.43;;;2.93;;
52956;SDS011;38819;42.692;23.342;2024-03-22T10:37:30;8.88;;;3.47;;
52956;SDS011;38819;42.692;23.342;2024-03-22T10:39:57;8.55;;;3.25;;
52956;SDS011;38819;42.692;23.342;2024-03-22T10:42:26;7.20;;;3.60;;
52956;SDS011;38819;42.692;23.342;2024-03-22T10:44:51;5.63;;;3.28;;
52956;SDS011;38819;42.692;23.342;2024-03-22T10:47:17;7.80;;;3.70;;
52956;SDS011;38819;42.692;23.342;2024-03-22T10:52:12;5.47;;;3.58;;
52956;SDS011;38819;42.692;23.342;2024-03-22T10:54:39;4.20;;;3.30;;
52956;SDS011;38819;42.692;23.342;2024-03-22T10:57:05;8.10;;;4.33;;
52956;SDS011;38819;42.692;23.342;2024-03-22T10:59:36;10.32;;;6.30;;
52956;SDS011;38819;42.692;23.342;2024-03-22T11:02:03;7.80;;;3.50;;
52956;SDS011;38819;42.692;23.342;2024-03-22T11:04:29;7.38;;;4.05;;
52956;SDS011;38819;42.692;23.342;2024-03-22T11:06:56;10.98;;;4.00;;
52956;SDS011;38819;42.692;23.342;2024-03-22T11:09:25;3.88;;;3.45;;
52956;SDS011;38819;42.692;23.342;2024-03-22T11:11:52;5.53;;;3.25;;
52956;SDS011;38819;42.692;23.342;2024-03-22T11:14:18;9.30;;;3.60;;
52956;SDS011;38819;42.692;23.342;2024-03-22T11:16:45;4.88;;;3.65;;
52956;SDS011;38819;42.692;23.342;2024-03-22T11:19:10;8.30;;;3.88;;
52956;SDS011;38819;42.692;23.342;2024-03-22T11:21:37;5.95;;;3.60;;
52956;SDS011;38819;42.692;23.342;2024-03-22T11:24:02;8.70;;;3.38;;
52956;SDS011;38819;42.692;23.342;2024-03-22T11:26:28;12.40;;;3.15;;
52956;SDS011;38819;42.692;23.342;2024-03-22T11:28:54;9.57;;;3.50;;
52956;SDS011;38819;42.692;23.342;2024-03-22T11:31:19;4.28;;;3.42;;
52956;SDS011;38819;42.692;23.342;2024-03-22T11:33:47;5.57;;;3.28;;
52956;SDS011;38819;42.692;23.342;2024-03-22T11:36:12;8.90;;;2.97;;
52956;SDS011;38819;42.692;23.342;2024-03-22T11:38:38;6.35;;;2.97;;
52956;SDS011;38819;42.692;23.342;2024-03-22T11:41:04;5.13;;;3.38;;
52956;SDS011;38819;42.692;23.342;2024-03-22T11:43:30;6.32;;;2.97;;
52956;SDS011;38819;42.692;23.342;2024-03-22T11:45:56;6.55;;;3.13;;
52956;SDS011;38819;42.692;23.342;2024-03-22T11:48:22;14.70;;;3.53;;
52956;SDS011;38819;42.692;23.342;2024-03-22T11:50:48;5.22;;;3.10;;
52956;SDS011;38819;42.692;23.342;2024-03-22T11:53:15;7.60;;;2.72;;
52956;SDS011;38819;42.692;23.342;2024-03-22T11:55:42;7.65;;;3.42;;
52956;SDS011;38819;42.692;23.342;2024-03-22T11:58:09;3.63;;;3.20;;
52956;SDS011;38819;42.692;23.342;2024-03-22T12:00:35;4.50;;;3.22;;
52956;SDS011;38819;42.692;23.342;2024-03-22T12:03:02;5.10;;;3.63;;
52956;SDS011;38819;42.692;23.342;2024-03-22T12:05:29;4.85;;;2.63;;
52956;SDS011;38819;42.692;23.342;2024-03-22T12:07:55;5.22;;;2.58;;
52956;SDS011;38819;42.692;23.342;2024-03-22T12:10:21;8.48;;;2.92;;
52956;SDS011;38819;42.692;23.342;2024-03-22T12:12:46;5.88;;;3.00;;
52956;SDS011;38819;42.692;23.342;2024-03-22T12:15:12;4.93;;;3.25;;
52956;SDS011;38819;42.692;23.342;2024-03-22T12:17:37;12.68;;;3.50;;
52956;SDS011;38819;42.692;23.342;2024-03-22T12:20:04;2.97;;;2.67;;
52956;SDS011;38819;42.692;23.342;2024-03-22T12:22:33;4.03;;;2.72;;
52956;SDS011;38819;42.692;23.342;2024-03-22T12:24:59;5.05;;;3.65;;
52956;SDS011;38819;42.692;23.342;2024-03-22T12:27:25;5.38;;;3.20;;
52956;SDS011;38819;42.692;23.342;2024-03-22T12:29:50;9.02;;;3.63;;
52956;SDS011;38819;42.692;23.342;2024-03-22T12:32:15;3.28;;;2.97;;
52956;SDS011;38819;42.692;23.342;2024-03-22T12:34:41;10.82;;;3.22;;
52956;SDS011;38819;42.692;23.342;2024-03-22T12:37:06;6.95;;;3.08;;
52956;SDS011;38819;42.692;23.342;2024-03-22T12:39:32;5.32;;;2.90;;
52956;SDS011;38819;42.692;23.342;2024-03-22T12:41:57;4.45;;;2.97;;
52956;SDS011;38819;42.692;23.342;2024-03-22T12:44:23;5.05;;;3.00;;
52956;SDS011;38819;42.692;23.342;2024-03-22T12:46:48;6.63;;;3.38;;
52956;SDS011;38819;42.692;23.342;2024-03-22T12:49:16;8.25;;;3.40;;
52956;SDS011;38819;42.692;23.342;2024-03-22T12:51:41;7.25;;;3.08;;
52956;SDS011;38819;42.692;23.342;2024-03-22T12:54:07;6.90;;;3.05;;
52956;SDS011;38819;42.692;23.342;2024-03-22T12:56:33;3.37;;;3.10;;
52956;SDS011;38819;42.692;23.342;2024-03-22T12:58:59;3.63;;;2.78;;
52956;SDS011;38819;42.692;23.342;2024-03-22T13:01:25;6.63;;;3.30;;
52956;SDS011;38819;42.692;23.342;2024-03-22T13:03:50;4.82;;;3.40;;
52956;SDS011;38819;42.692;23.342;2024-03-22T13:06:16;4.93;;;3.08;;
52956;SDS011;38819;42.692;23.342;2024-03-22T13:08:41;5.50;;;2.67;;
52956;SDS011;38819;42.692;23.342;2024-03-22T13:11:07;5.22;;;2.72;;
52956;SDS011;38819;42.692;23.342;2024-03-22T13:13:34;5.00;;;3.28;;
52956;SDS011;38819;42.692;23.342;2024-03-22T13:16:00;3.70;;;2.67;;
52956;SDS011;38819;42.692;23.342;2024-03-22T13:18:27;3.80;;;3.25;;
52956;SDS011;38819;42.692;23.342;2024-03-22T13:20:53;4.15;;;3.30;;
52956;SDS011;38819;42.692;23.342;2024-03-22T13:23:19;4.53;;;2.83;;
52956;SDS011;38819;42.692;23.342;2024-03-22T13:25:44;5.32;;;2.88;;
52956;SDS011;38819;42.692;23.342;2024-03-22T13:28:09;5.95;;;3.03;;
52956;SDS011;38819;42.692;23.342;2024-03-22T13:30:35;5.45;;;2.83;;
52956;SDS011;38819;42.692;23.342;2024-03-22T13:33:02;3.30;;;2.75;;
52956;SDS011;38819;42.692;23.342;2024-03-22T13:35:28;6.57;;;3.03;;
52956;SDS011;38819;42.692;23.342;2024-03-22T13:37:53;3.88;;;2.95;;
52956;SDS011;38819;42.692;23.342;2024-03-22T13:40:18;7.93;;;3.03;;
52956;SDS011;38819;42.692;23.342;2024-03-22T13:42:44;3.35;;;2.90;;
52956;SDS011;38819;42.692;23.342;2024-03-22T13:45:10;8.75;;;3.47;;
52956;SDS011;38819;42.692;23.342;2024-03-22T13:47:36;5.47;;;2.67;;
52956;SDS011;38819;42.692;23.342;2024-03-22T13:50:06;4.13;;;2.67;;
52956;SDS011;38819;42.692;23.342;2024-03-22T13:52:33;3.72;;;3.00;;
52956;SDS011;38819;42.692;23.342;2024-03-22T13:54:59;3.35;;;2.85;;
52956;SDS011;38819;42.692;23.342;2024-03-22T13:57:26;4.90;;;3.42;;
52956;SDS011;38819;42.692;23.342;2024-03-22T13:59:51;3.72;;;3.42;;
52956;SDS011;38819;42.692;23.342;2024-03-22T14:02:17;4.60;;;3.40;;
52956;SDS011;38819;42.692;23.342;2024-03-22T14:04:42;3.17;;;2.80;;
52956;SDS011;38819;42.692;23.342;2024-03-22T14:07:07;4.07;;;2.97;;
52956;SDS011;38819;42.692;23.342;2024-03-22T14:09:34;7.57;;;3.13;;
52956;SDS011;38819;42.692;23.342;2024-03-22T14:12:00;7.22;;;3.15;;
52956;SDS011;38819;42.692;23.342;2024-03-22T14:14:28;7.53;;;3.13;;
52956;SDS011;38819;42.692;23.342;2024-03-22T14:16:54;4.40;;;3.00;;
52956;SDS011;38819;42.692;23.342;2024-03-22T14:19:19;10.07;;;3.35;;
52956;SDS011;38819;42.692;23.342;2024-03-22T14:21:45;3.67;;;2.90;;